createdAt,value
2023-05-15T00:02:16.886Z,13.31
2023-05-15T00:04:44.126Z,13.28
2023-05-15T00:07:11.353Z,13.25
2023-05-15T00:09:38.591Z,13.21
2023-05-15T00:12:06.367Z,13.18
2023-05-15T00:14:33.501Z,13.15
2023-05-15T00:17:00.656Z,13.12
2023-05-15T00:19:27.914Z,13.10
2023-05-15T00:21:55.806Z,13.07
2023-05-15T00:24:22.926Z,13.04
2023-05-15T00:26:50.075Z,13.01
2023-05-15T00:29:17.247Z,13.00
2023-05-15T00:31:45.417Z,12.97
2023-05-15T00:34:12.661Z,12.94
2023-05-15T00:36:39.815Z,12.91
2023-05-15T00:39:06.964Z,12.87
2023-05-15T00:41:34.322Z,12.83
2023-05-15T00:44:01.791Z,12.80
2023-05-15T00:46:29.329Z,12.75
2023-05-15T00:48:56.491Z,12.72
2023-05-15T00:53:28.754Z,12.69
2023-05-15T00:55:57.647Z,12.65
2023-05-15T00:58:25.130Z,12.65
2023-05-15T01:00:53.264Z,12.63
2023-05-15T01:03:20.731Z,12.61
2023-05-15T01:05:48.025Z,12.58
2023-05-15T01:08:22.128Z,12.55
2023-05-15T01:10:51.224Z,12.52
2023-05-15T01:13:22.474Z,12.49
2023-05-15T01:15:50.042Z,12.46
2023-05-15T01:18:17.339Z,12.44
2023-05-15T01:20:57.342Z,12.43
2023-05-15T01:23:34.836Z,12.38
2023-05-15T01:26:20.112Z,12.32
2023-05-15T01:28:50.640Z,12.25
2023-05-15T01:31:19.738Z,12.18
2023-05-15T01:33:50.269Z,12.12
2023-05-15T01:36:24.997Z,12.08
2023-05-15T01:38:57.654Z,12.04
2023-05-15T01:41:47.153Z,12.01
2023-05-15T01:44:21.878Z,11.99
2023-05-15T01:46:50.541Z,11.96
2023-05-15T01:49:19.222Z,11.95
2023-05-15T01:51:49.473Z,11.96
2023-05-15T01:54:16.633Z,11.95
2023-05-15T01:56:45.530Z,11.92
2023-05-15T01:59:13.708Z,11.89
2023-05-15T02:01:41.222Z,11.86
2023-05-15T02:04:09.016Z,11.86
2023-05-15T02:06:36.378Z,11.86
2023-05-15T02:09:03.725Z,11.86
2023-05-15T02:11:31.186Z,11.85
2023-05-15T02:13:58.438Z,11.81
2023-05-15T02:16:25.646Z,11.77
2023-05-15T02:18:53.431Z,11.75
2023-05-15T02:21:20.709Z,11.83
2023-05-15T02:23:47.965Z,11.88
2023-05-15T02:26:36.921Z,11.90
2023-05-15T02:29:23.429Z,11.92
2023-05-15T02:31:56.452Z,11.95
2023-05-15T02:34:33.101Z,11.97
2023-05-15T02:37:01.459Z,11.98
2023-05-15T02:39:28.625Z,11.97
2023-05-15T02:41:55.871Z,11.95
2023-05-15T02:44:23.329Z,11.95
2023-05-15T02:46:50.638Z,11.95
2023-05-15T02:49:18.246Z,11.94
2023-05-15T02:51:47.960Z,11.93
2023-05-15T02:54:15.107Z,11.91
2023-05-15T02:56:42.254Z,11.88
2023-05-15T02:59:09.507Z,11.86
2023-05-15T03:01:36.799Z,11.84
2023-05-15T03:04:04.332Z,11.81
2023-05-15T03:06:31.985Z,11.77
2023-05-15T03:08:59.136Z,11.71
2023-05-15T03:11:27.318Z,11.72
2023-05-15T03:13:54.464Z,11.74
2023-05-15T03:16:21.627Z,11.78
2023-05-15T03:18:48.769Z,11.83
2023-05-15T03:21:16.112Z,11.88
2023-05-15T03:23:43.265Z,11.96
2023-05-15T03:26:10.416Z,12.04
2023-05-15T03:28:37.777Z,12.10
2023-05-15T03:31:08.959Z,12.15
2023-05-15T03:33:36.170Z,12.15
2023-05-15T03:36:03.553Z,12.14
2023-05-15T03:38:30.682Z,12.18
2023-05-15T03:40:57.826Z,12.23
2023-05-15T03:43:25.285Z,12.30
2023-05-15T03:45:52.553Z,12.42
2023-05-15T03:48:19.692Z,12.54
2023-05-15T03:50:46.856Z,12.65
2023-05-15T03:53:13.996Z,12.79
2023-05-15T03:55:41.147Z,12.93
2023-05-15T03:58:08.299Z,13.06
2023-05-15T04:00:35.453Z,13.17
2023-05-15T04:03:02.749Z,13.29
2023-05-15T04:05:30.201Z,13.41
2023-05-15T04:07:57.430Z,13.52
2023-05-15T04:10:24.813Z,13.64
2023-05-15T04:12:52.239Z,13.74
2023-05-15T04:15:20.238Z,13.85
2023-05-15T04:17:48.426Z,13.98
2023-05-15T04:20:17.698Z,14.12
2023-05-15T04:22:45.141Z,14.26
2023-05-15T04:25:12.601Z,14.43
2023-05-15T04:27:39.752Z,14.57
2023-05-15T04:30:07.952Z,14.70
2023-05-15T04:32:36.125Z,14.81
2023-05-15T04:35:09.679Z,14.92
2023-05-15T04:37:37.473Z,15.03
2023-05-15T04:40:06.842Z,15.13
2023-05-15T04:42:34.553Z,15.29
2023-05-15T04:45:03.142Z,15.42
2023-05-15T04:47:30.392Z,15.56
2023-05-15T04:49:57.534Z,15.68
2023-05-15T04:52:25.297Z,15.80
2023-05-15T04:54:53.889Z,15.92
2023-05-15T04:57:21.768Z,16.03
2023-05-15T04:59:49.026Z,16.14
2023-05-15T05:02:16.163Z,16.26
2023-05-15T05:04:43.630Z,16.37
2023-05-15T05:07:10.707Z,16.48
2023-05-15T05:09:39.623Z,16.62
2023-05-15T05:12:08.347Z,16.74
2023-05-15T05:14:35.515Z,16.87
2023-05-15T05:17:02.977Z,16.98
2023-05-15T05:19:30.231Z,17.09
2023-05-15T05:21:58.720Z,17.20
2023-05-15T05:24:25.882Z,17.31
2023-05-15T05:26:53.033Z,17.41
2023-05-15T05:29:20.174Z,17.53
2023-05-15T05:31:47.788Z,17.64
2023-05-15T05:34:14.988Z,17.75
2023-05-15T05:36:42.445Z,17.89
2023-05-15T05:39:09.596Z,18.03
2023-05-15T05:41:38.077Z,18.16
2023-05-15T05:44:05.337Z,18.27
2023-05-15T05:46:32.504Z,18.39
2023-05-15T05:48:59.736Z,18.50
2023-05-15T05:51:26.887Z,18.61
2023-05-15T05:53:54.040Z,18.72
2023-05-15T05:56:22.112Z,18.83
2023-05-15T05:58:49.263Z,18.94
2023-05-15T06:01:16.925Z,19.05
2023-05-15T06:03:44.146Z,19.17
2023-05-15T06:06:11.871Z,19.27
2023-05-15T06:08:38.970Z,19.41
2023-05-15T06:11:06.659Z,19.57
2023-05-15T06:13:33.739Z,19.71
2023-05-15T06:16:00.789Z,19.84
2023-05-15T06:18:27.944Z,19.97
2023-05-15T06:20:55.163Z,20.11
2023-05-15T06:23:24.376Z,20.25
2023-05-15T06:25:51.716Z,20.42
2023-05-15T06:28:18.969Z,20.58
2023-05-15T06:30:47.463Z,20.74
2023-05-15T06:33:14.653Z,20.90
2023-05-15T06:35:41.757Z,21.03
2023-05-15T06:38:08.910Z,21.17
2023-05-15T06:40:36.164Z,21.32
2023-05-15T06:43:03.933Z,21.48
2023-05-15T06:45:31.593Z,21.63
2023-05-15T06:48:01.649Z,21.77
2023-05-15T06:50:29.272Z,21.89
2023-05-15T06:52:56.432Z,21.99
2023-05-15T06:55:23.722Z,22.10
2023-05-15T06:57:51.147Z,22.23
2023-05-15T07:00:18.837Z,22.37
2023-05-15T07:02:46.298Z,22.51
2023-05-15T07:05:14.599Z,22.63
2023-05-15T07:07:42.095Z,22.73
2023-05-15T07:10:09.670Z,22.81
2023-05-15T07:12:36.815Z,22.88
2023-05-15T07:15:05.373Z,22.97
2023-05-15T07:17:33.821Z,23.03
2023-05-15T07:20:01.153Z,23.09
2023-05-15T07:22:29.418Z,23.18
2023-05-15T07:24:56.660Z,23.29
2023-05-15T07:27:23.815Z,23.38
2023-05-15T07:29:50.977Z,23.45
2023-05-15T07:32:18.134Z,23.49
2023-05-15T07:34:45.378Z,23.58
2023-05-15T07:37:13.241Z,23.69
2023-05-15T07:39:41.291Z,23.80
2023-05-15T07:42:08.573Z,23.93
2023-05-15T07:44:36.023Z,24.02
2023-05-15T07:47:03.902Z,24.10
2023-05-15T07:49:31.149Z,24.20
2023-05-15T07:51:58.295Z,24.34
2023-05-15T07:54:27.084Z,24.47
2023-05-15T07:56:54.666Z,24.61
2023-05-15T07:59:21.952Z,24.74
2023-05-15T08:01:49.151Z,24.87
2023-05-15T08:04:16.323Z,24.97
2023-05-15T08:06:44.613Z,25.02
2023-05-15T08:09:13.102Z,25.10
2023-05-15T08:11:40.219Z,25.23
2023-05-15T08:14:07.390Z,25.32
2023-05-15T08:16:34.680Z,25.39
2023-05-15T08:19:05.063Z,25.43
2023-05-15T08:21:32.611Z,25.49
2023-05-15T08:24:00.828Z,25.54
2023-05-15T08:26:28.052Z,25.67
2023-05-15T08:28:55.188Z,25.78
2023-05-15T08:31:22.418Z,25.82
2023-05-15T08:33:49.816Z,25.85
2023-05-15T08:36:18.589Z,25.89
2023-05-15T08:38:45.951Z,25.89
2023-05-15T08:41:38.676Z,25.96
2023-05-15T08:44:07.088Z,26.10
2023-05-15T08:46:34.849Z,26.20
2023-05-15T08:49:03.885Z,26.19
2023-05-15T08:51:31.099Z,26.17
2023-05-15T08:53:58.349Z,26.24
2023-05-15T08:56:25.501Z,26.40
2023-05-15T08:58:54.262Z,26.53
2023-05-15T09:01:21.487Z,26.58
2023-05-15T09:03:48.810Z,26.64
2023-05-15T09:06:16.158Z,26.64
2023-05-15T09:08:43.310Z,26.56
2023-05-15T09:11:10.461Z,26.47
2023-05-15T09:13:37.621Z,26.36
2023-05-15T09:16:05.320Z,26.26
2023-05-15T09:18:32.457Z,26.23
2023-05-15T09:21:29.180Z,26.28
2023-05-15T09:24:13.433Z,26.42
2023-05-15T09:26:40.784Z,26.47
2023-05-15T09:29:07.946Z,26.54
2023-05-15T09:31:35.192Z,26.59
2023-05-15T09:34:04.802Z,26.56
2023-05-15T09:36:32.880Z,26.47
2023-05-15T09:39:00.732Z,26.33
2023-05-15T09:41:28.911Z,26.29
2023-05-15T09:43:57.189Z,26.42
2023-05-15T09:46:24.604Z,26.56
2023-05-15T09:48:55.915Z,26.52
2023-05-15T09:51:23.056Z,26.36
2023-05-15T09:53:51.723Z,26.21
2023-05-15T09:56:18.997Z,26.14
2023-05-15T09:58:56.661Z,26.16
2023-05-15T10:01:24.195Z,26.24
2023-05-15T10:04:03.801Z,26.29
2023-05-15T10:06:37.836Z,26.31
2023-05-15T10:09:05.366Z,26.25
2023-05-15T10:11:34.677Z,26.16
2023-05-15T10:14:09.518Z,26.06
2023-05-15T10:16:38.120Z,25.91
2023-05-15T10:19:08.853Z,25.79
2023-05-15T10:21:37.784Z,25.74
2023-05-15T10:24:05.291Z,25.79
2023-05-15T10:26:38.465Z,25.89
2023-05-15T10:29:16.597Z,25.97
2023-05-15T10:31:43.755Z,25.99
2023-05-15T10:34:11.300Z,25.99
2023-05-15T10:36:38.936Z,26.00
2023-05-15T10:39:07.232Z,25.95
2023-05-15T10:41:36.810Z,25.87
2023-05-15T10:44:03.992Z,25.86
2023-05-15T10:46:32.816Z,25.99
2023-05-15T10:49:00.865Z,26.24
2023-05-15T10:51:29.242Z,26.44
2023-05-15T10:53:56.901Z,26.52
2023-05-15T10:56:29.866Z,26.67
2023-05-15T10:58:57.153Z,26.92
2023-05-15T11:01:32.414Z,27.28
2023-05-15T11:04:13.572Z,27.70
2023-05-15T11:06:45.274Z,28.07
2023-05-15T11:09:33.162Z,28.35
2023-05-15T11:12:05.094Z,28.62
2023-05-15T11:14:34.887Z,28.69
2023-05-15T11:17:12.136Z,28.80
2023-05-15T11:19:51.795Z,28.96
2023-05-15T11:22:19.962Z,29.11
2023-05-15T11:25:12.258Z,29.20
2023-05-15T11:27:40.780Z,29.31
2023-05-15T11:30:20.689Z,29.34
2023-05-15T11:32:47.867Z,29.45
2023-05-15T11:35:20.000Z,29.57
2023-05-15T11:37:48.734Z,29.56
2023-05-15T11:40:26.776Z,29.59
2023-05-15T11:43:07.402Z,29.64
2023-05-15T11:45:37.018Z,29.55
2023-05-15T11:48:05.013Z,29.37
2023-05-15T11:50:33.992Z,29.15
2023-05-15T11:53:08.362Z,28.91
2023-05-15T11:55:37.061Z,28.71
2023-05-15T11:58:04.544Z,28.62
2023-05-15T12:00:32.152Z,28.63
2023-05-15T12:02:59.610Z,28.68
2023-05-15T12:05:26.818Z,28.66
2023-05-15T12:07:54.075Z,28.52
2023-05-15T12:10:21.124Z,28.28
2023-05-15T12:12:48.775Z,28.01
2023-05-15T12:15:17.485Z,27.73
2023-05-15T12:17:45.424Z,27.50
2023-05-15T12:20:17.088Z,27.49
2023-05-15T12:22:44.463Z,27.64
2023-05-15T12:25:12.634Z,27.86
2023-05-15T12:27:39.794Z,28.08
2023-05-15T12:30:07.598Z,28.25
2023-05-15T12:32:36.238Z,28.30
2023-05-15T12:35:04.004Z,28.32
2023-05-15T12:37:35.889Z,28.28
2023-05-15T12:40:13.233Z,28.20
2023-05-15T12:42:43.599Z,27.98
2023-05-15T12:45:18.612Z,27.66
2023-05-15T12:47:46.973Z,27.39
2023-05-15T12:50:22.154Z,27.41
2023-05-15T12:52:53.384Z,27.68
2023-05-15T12:55:34.150Z,28.09
2023-05-15T12:58:04.584Z,28.56
2023-05-15T13:00:34.607Z,29.03
2023-05-15T13:03:02.246Z,29.49
2023-05-15T13:05:32.284Z,29.82
2023-05-15T13:10:47.992Z,29.62
2023-05-15T13:13:15.766Z,29.60
2023-05-15T13:15:46.226Z,29.66
2023-05-15T13:18:14.635Z,29.70
2023-05-15T13:20:46.546Z,29.79
2023-05-15T13:23:16.355Z,29.89
2023-05-15T13:25:43.823Z,29.85
2023-05-15T13:28:11.468Z,29.79
2023-05-15T13:30:42.242Z,29.68
2023-05-15T13:33:13.014Z,29.62
2023-05-15T13:35:40.516Z,29.48
2023-05-15T13:38:11.178Z,29.20
2023-05-15T13:40:39.329Z,28.90
2023-05-15T13:43:07.039Z,28.74
2023-05-15T13:45:34.422Z,28.63
2023-05-15T13:48:01.992Z,28.59
2023-05-15T13:50:29.271Z,28.55
2023-05-15T13:52:56.622Z,28.46
2023-05-15T13:55:24.274Z,28.33
2023-05-15T13:57:52.351Z,28.21
2023-05-15T14:00:20.366Z,28.11
2023-05-15T14:02:48.539Z,28.04
2023-05-15T14:05:16.596Z,27.94
2023-05-15T14:07:43.936Z,27.82
2023-05-15T14:10:12.214Z,27.67
2023-05-15T14:12:39.969Z,27.52
2023-05-15T14:15:07.798Z,27.40
2023-05-15T14:17:35.534Z,27.32
2023-05-15T14:20:02.863Z,27.24
2023-05-15T14:22:30.118Z,27.22
2023-05-15T14:24:57.572Z,27.22
2023-05-15T14:27:24.726Z,27.24
2023-05-15T14:29:52.384Z,27.25
2023-05-15T14:32:19.785Z,27.27
2023-05-15T14:34:47.313Z,27.32
2023-05-15T14:37:14.462Z,27.38
2023-05-15T14:39:41.615Z,27.41
2023-05-15T14:42:08.758Z,27.40
2023-05-15T14:44:35.919Z,27.36
2023-05-15T14:47:07.884Z,27.29
2023-05-15T14:49:36.055Z,27.24
2023-05-15T14:52:03.855Z,27.25
2023-05-15T14:54:32.327Z,27.21
2023-05-15T14:57:00.368Z,27.12
2023-05-15T14:59:28.245Z,27.06
2023-05-15T15:01:55.675Z,26.96
2023-05-15T15:04:22.850Z,26.84
2023-05-15T15:06:50.101Z,26.72
2023-05-15T15:09:19.536Z,26.64
2023-05-15T15:11:48.201Z,26.55
2023-05-15T15:14:15.346Z,26.47
2023-05-15T15:16:44.500Z,26.44
2023-05-15T15:19:12.655Z,26.39
2023-05-15T15:21:40.227Z,26.29
2023-05-15T15:24:07.482Z,26.15
2023-05-15T15:26:34.592Z,26.02
2023-05-15T15:29:01.847Z,25.89
2023-05-15T15:31:29.934Z,25.76
2023-05-15T15:33:57.501Z,25.62
2023-05-15T15:36:25.157Z,25.49
2023-05-15T15:38:52.506Z,25.39
2023-05-15T15:41:21.797Z,25.33
2023-05-15T15:43:49.167Z,25.33
2023-05-15T15:46:16.357Z,25.29
2023-05-15T15:48:43.495Z,25.23
2023-05-15T15:51:10.619Z,25.13
2023-05-15T15:53:38.694Z,25.02
2023-05-15T15:56:07.369Z,24.91
2023-05-15T15:58:34.536Z,24.83
2023-05-15T16:01:02.787Z,24.76
2023-05-15T16:03:31.802Z,24.71
2023-05-15T16:06:00.351Z,24.67
2023-05-15T16:08:27.961Z,24.61
2023-05-15T16:10:55.434Z,24.53
2023-05-15T16:13:23.708Z,24.46
2023-05-15T16:15:50.973Z,24.40
2023-05-15T16:18:18.117Z,24.35
2023-05-15T16:20:45.265Z,24.27
2023-05-15T16:23:15.427Z,24.19
2023-05-15T16:25:44.397Z,24.12
2023-05-15T16:28:12.385Z,24.03
2023-05-15T16:30:48.741Z,23.93
2023-05-15T16:33:17.999Z,23.82
2023-05-15T16:35:45.791Z,23.74
2023-05-15T16:38:13.568Z,23.68
2023-05-15T16:40:40.712Z,23.58
2023-05-15T16:43:07.962Z,23.59
2023-05-15T16:45:35.053Z,23.54
2023-05-15T16:48:02.242Z,23.49
2023-05-15T16:50:31.175Z,23.43
2023-05-15T16:52:59.262Z,23.35
2023-05-15T16:55:26.808Z,23.27
2023-05-15T16:57:53.952Z,23.15
2023-05-15T17:00:21.541Z,23.01
2023-05-15T17:02:49.461Z,22.87
2023-05-15T17:05:16.809Z,22.77
2023-05-15T17:07:44.745Z,22.68
2023-05-15T17:10:12.384Z,22.59
2023-05-15T17:12:39.539Z,22.51
2023-05-15T17:15:07.548Z,22.43
2023-05-15T17:17:34.836Z,22.36
2023-05-15T17:20:03.147Z,22.27
2023-05-15T17:22:30.707Z,22.19
2023-05-15T17:24:57.956Z,22.13
2023-05-15T17:27:25.049Z,22.05
2023-05-15T17:29:52.324Z,21.98
2023-05-15T17:32:19.767Z,21.90
2023-05-15T17:34:47.303Z,21.84
2023-05-15T17:37:14.661Z,21.77
2023-05-15T17:39:41.916Z,21.71
2023-05-15T17:42:09.051Z,21.64
2023-05-15T17:44:36.608Z,21.56
2023-05-15T17:47:03.872Z,21.49
2023-05-15T17:49:31.226Z,21.43
2023-05-15T17:51:58.380Z,21.36
2023-05-15T17:54:25.838Z,21.30
2023-05-15T17:56:52.989Z,21.23
2023-05-15T17:59:20.144Z,21.17
2023-05-15T18:01:47.350Z,21.11
2023-05-15T18:04:15.049Z,21.05
2023-05-15T18:06:42.416Z,20.98
2023-05-15T18:09:09.784Z,20.90
2023-05-15T18:11:37.036Z,20.83
2023-05-15T18:14:04.183Z,20.76
2023-05-15T18:16:32.980Z,20.70
2023-05-15T18:19:00.506Z,20.64
2023-05-15T18:21:27.790Z,20.59
2023-05-15T18:23:54.946Z,20.54
2023-05-15T18:26:22.403Z,20.48
2023-05-15T18:28:49.973Z,20.43
2023-05-15T18:31:17.181Z,20.36
2023-05-15T18:33:45.331Z,20.30
2023-05-15T18:36:12.561Z,20.25
2023-05-15T18:38:39.808Z,20.21
2023-05-15T18:41:06.971Z,20.17
2023-05-15T18:43:34.115Z,20.13
2023-05-15T18:46:01.485Z,20.09
2023-05-15T18:48:28.642Z,20.04
2023-05-15T18:50:56.189Z,20.00
2023-05-15T18:53:23.362Z,19.97
2023-05-15T18:55:50.605Z,19.92
2023-05-15T18:58:17.852Z,19.87
2023-05-15T19:00:45.091Z,19.82
2023-05-15T19:03:12.445Z,19.76
2023-05-15T19:05:39.729Z,19.71
2023-05-15T19:08:07.490Z,19.63
2023-05-15T19:10:34.650Z,19.57
2023-05-15T19:13:01.793Z,19.49
2023-05-15T19:15:28.949Z,19.41
2023-05-15T19:17:56.328Z,19.33
2023-05-15T19:20:23.657Z,19.26
2023-05-15T19:22:51.116Z,19.18
2023-05-15T19:25:18.279Z,19.13
2023-05-15T19:27:46.344Z,19.07
2023-05-15T19:30:13.503Z,19.02
2023-05-15T19:32:40.945Z,18.97
2023-05-15T19:35:09.352Z,18.91
2023-05-15T19:37:36.804Z,18.86
2023-05-15T19:40:04.833Z,18.80
2023-05-15T19:42:31.927Z,18.74
2023-05-15T19:44:59.080Z,18.69
2023-05-15T19:47:27.026Z,18.64
2023-05-15T19:49:54.412Z,18.59
2023-05-15T19:52:21.562Z,18.54
2023-05-15T19:54:48.711Z,18.49
2023-05-15T19:57:16.172Z,18.45
2023-05-15T19:59:43.330Z,18.39
2023-05-15T20:02:11.484Z,18.36
2023-05-15T20:04:38.774Z,18.28
2023-05-15T20:07:05.910Z,18.31
2023-05-15T20:09:33.267Z,18.27
2023-05-15T20:12:01.043Z,18.24
2023-05-15T20:14:28.286Z,18.21
2023-05-15T20:16:55.440Z,18.18
2023-05-15T20:19:24.776Z,18.15
2023-05-15T20:21:52.205Z,18.13
2023-05-15T20:24:19.464Z,18.10
2023-05-15T20:26:46.613Z,18.09
2023-05-15T20:29:13.869Z,18.07
2023-05-15T20:31:41.160Z,18.05
2023-05-15T20:34:08.472Z,18.04
2023-05-15T20:36:39.094Z,18.02
2023-05-15T20:39:07.676Z,18.02
2023-05-15T20:41:35.065Z,18.01
2023-05-15T20:44:02.427Z,17.99
2023-05-15T20:46:30.723Z,17.96
2023-05-15T20:48:58.162Z,17.94
2023-05-15T20:51:25.517Z,17.92
2023-05-15T20:53:52.672Z,17.91
2023-05-15T20:56:19.938Z,17.89
2023-05-15T20:58:47.080Z,17.88
2023-05-15T21:01:16.047Z,17.85
2023-05-15T21:03:43.698Z,17.83
2023-05-15T21:06:11.306Z,17.80
2023-05-15T21:08:38.456Z,17.79
2023-05-15T21:11:05.707Z,17.76
2023-05-15T21:13:32.889Z,17.71
2023-05-15T21:16:00.035Z,17.68
2023-05-15T21:18:27.138Z,17.66
2023-05-15T21:20:54.220Z,17.61
2023-05-15T21:23:21.681Z,17.59
2023-05-15T21:25:48.839Z,17.56
2023-05-15T21:28:16.397Z,17.55
2023-05-15T21:30:43.563Z,17.52
2023-05-15T21:33:10.960Z,17.49
2023-05-15T21:35:38.465Z,17.46
2023-05-15T21:38:05.734Z,17.44
2023-05-15T21:40:33.102Z,17.43
2023-05-15T21:43:00.338Z,17.41
2023-05-15T21:45:27.487Z,17.37
2023-05-15T21:47:54.708Z,17.34
2023-05-15T21:50:21.897Z,17.32
2023-05-15T21:52:51.126Z,17.29
2023-05-15T21:55:18.562Z,17.25
2023-05-15T21:57:45.710Z,17.21
2023-05-15T22:00:14.229Z,17.18
2023-05-15T22:02:41.678Z,17.15
2023-05-15T22:05:09.043Z,17.13
2023-05-15T22:07:36.262Z,17.10
2023-05-15T22:10:03.937Z,17.08
2023-05-15T22:12:32.514Z,17.07
2023-05-15T22:15:00.076Z,17.05
2023-05-15T22:17:29.458Z,17.03
2023-05-15T22:20:07.678Z,17.01
2023-05-15T22:22:35.830Z,16.98
2023-05-15T22:25:03.946Z,16.92
2023-05-15T22:27:31.200Z,16.87
2023-05-15T22:29:58.364Z,16.83
2023-05-15T22:32:26.144Z,16.79
2023-05-15T22:34:53.376Z,16.74
2023-05-15T22:37:20.738Z,16.71
2023-05-15T22:39:48.020Z,16.68
2023-05-15T22:42:15.548Z,16.65
2023-05-15T22:44:42.702Z,16.64
2023-05-15T22:47:09.867Z,16.64
2023-05-15T22:49:38.333Z,16.63
2023-05-15T22:52:06.240Z,16.61
2023-05-15T22:54:33.668Z,16.59
2023-05-15T22:57:01.329Z,16.58
2023-05-15T22:59:28.690Z,16.56
2023-05-15T23:01:56.055Z,16.54
2023-05-15T23:04:23.265Z,16.52
2023-05-15T23:06:50.448Z,16.51
2023-05-15T23:09:17.600Z,16.49
2023-05-15T23:11:44.752Z,16.45
2023-05-15T23:14:12.416Z,16.41
2023-05-15T23:16:39.571Z,16.37
2023-05-15T23:19:06.813Z,16.35
2023-05-15T23:21:34.073Z,16.31
2023-05-15T23:24:01.433Z,16.28
2023-05-15T23:26:28.589Z,16.24
2023-05-15T23:28:55.740Z,16.21
2023-05-15T23:31:23.139Z,16.19
2023-05-15T23:33:50.987Z,16.16
2023-05-15T23:36:18.527Z,16.14
2023-05-15T23:38:45.808Z,16.12
2023-05-15T23:41:13.036Z,16.10
2023-05-15T23:43:40.188Z,16.08
2023-05-15T23:46:07.370Z,16.07
2023-05-15T23:48:34.589Z,16.06
2023-05-15T23:51:01.843Z,16.07
2023-05-15T23:53:29.001Z,16.06
2023-05-15T23:55:56.152Z,16.05
2023-05-15T23:58:23.912Z,16.05
